sensor_id;sensor_type;location;lat;lon;timestamp;temperature;humidity
58102;HTU21D;52034;51.926;6.320;2024-03-17T00:00:32;5.04;83.44
58102;HTU21D;52034;51.926;6.320;2024-03-17T00:01:32;5.03;83.49
58102;HTU21D;52034;51.926;6.320;2024-03-17T00:02:33;5.02;83.40
58102;HTU21D;52034;51.926;6.320;2024-03-17T00:03:34;5.07;83.00
58102;HTU21D;52034;51.926;6.320;2024-03-17T00:04:34;5.04;82.93
58102;HTU21D;52034;51.926;6.320;2024-03-17T00:05:35;5.01;82.98
58102;HTU21D;52034;51.926;6.320;2024-03-17T00:06:36;5.00;83.51
58102;HTU21D;52034;51.926;6.320;2024-03-17T00:07:37;4.96;83.70
58102;HTU21D;52034;51.926;6.320;2024-03-17T00:08:38;4.97;83.47
58102;HTU21D;52034;51.926;6.320;2024-03-17T00:09:39;5.01;83.23
58102;HTU21D;52034;51.926;6.320;2024-03-17T00:10:40;4.97;83.17
58102;HTU21D;52034;51.926;6.320;2024-03-17T00:11:40;5.01;82.75
58102;HTU21D;52034;51.926;6.320;2024-03-17T00:12:41;5.00;83.11
58102;HTU21D;52034;51.926;6.320;2024-03-17T00:13:42;4.95;82.95
58102;HTU21D;52034;51.926;6.320;2024-03-17T00:14:42;4.93;83.20
58102;HTU21D;52034;51.926;6.320;2024-03-17T00:15:43;4.89;83.64
58102;HTU21D;52034;51.926;6.320;2024-03-17T00:16:44;4.88;83.72
58102;HTU21D;52034;51.926;6.320;2024-03-17T00:17:45;4.90;83.80
58102;HTU21D;52034;51.926;6.320;2024-03-17T00:18:45;4.91;83.63
58102;HTU21D;52034;51.926;6.320;2024-03-17T00:19:49;4.90;83.45
58102;HTU21D;52034;51.926;6.320;2024-03-17T00:20:50;4.87;83.58
58102;HTU21D;52034;51.926;6.320;2024-03-17T00:21:50;4.87;83.72
58102;HTU21D;52034;51.926;6.320;2024-03-17T00:22:51;4.84;83.74
58102;HTU21D;52034;51.926;6.320;2024-03-17T00:23:52;4.81;83.73
58102;HTU21D;52034;51.926;6.320;2024-03-17T00:24:52;4.81;83.67
58102;HTU21D;52034;51.926;6.320;2024-03-17T00:25:54;4.80;83.68
58102;HTU21D;52034;51.926;6.320;2024-03-17T00:26:55;4.80;83.78
58102;HTU21D;52034;51.926;6.320;2024-03-17T00:27:55;4.79;83.55
58102;HTU21D;52034;51.926;6.320;2024-03-17T00:28:58;4.77;83.32
58102;HTU21D;52034;51.926;6.320;2024-03-17T00:29:58;4.71;83.42
58102;HTU21D;52034;51.926;6.320;2024-03-17T00:30:59;4.72;83.57
58102;HTU21D;52034;51.926;6.320;2024-03-17T00:32:00;4.67;83.69
58102;HTU21D;52034;51.926;6.320;2024-03-17T00:33:00;4.72;83.48
58102;HTU21D;52034;51.926;6.320;2024-03-17T00:34:01;4.69;83.43
58102;HTU21D;52034;51.926;6.320;2024-03-17T00:35:02;4.67;83.60
58102;HTU21D;52034;51.926;6.320;2024-03-17T00:36:03;4.65;83.22
58102;HTU21D;52034;51.926;6.320;2024-03-17T00:37:03;4.67;83.08
58102;HTU21D;52034;51.926;6.320;2024-03-17T00:38:04;4.64;82.66
58102;HTU21D;52034;51.926;6.320;2024-03-17T00:39:10;4.64;82.43
58102;HTU21D;52034;51.926;6.320;2024-03-17T00:40:11;4.64;81.94
58102;HTU21D;52034;51.926;6.320;2024-03-17T00:41:12;4.62;82.13
58102;HTU21D;52034;51.926;6.320;2024-03-17T00:42:12;4.62;82.12
58102;HTU21D;52034;51.926;6.320;2024-03-17T00:43:14;4.56;82.30
58102;HTU21D;52034;51.926;6.320;2024-03-17T00:44:15;4.54;82.39
58102;HTU21D;52034;51.926;6.320;2024-03-17T00:45:15;4.64;82.35
58102;HTU21D;52034;51.926;6.320;2024-03-17T00:46:16;4.75;82.81
58102;HTU21D;52034;51.926;6.320;2024-03-17T00:47:18;4.82;83.15
58102;HTU21D;52034;51.926;6.320;2024-03-17T00:48:19;4.80;83.03
58102;HTU21D;52034;51.926;6.320;2024-03-17T00:49:19;4.76;81.79
58102;HTU21D;52034;51.926;6.320;2024-03-17T00:50:20;4.69;81.72
58102;HTU21D;52034;51.926;6.320;2024-03-17T00:51:20;4.69;81.84
58102;HTU21D;52034;51.926;6.320;2024-03-17T00:52:21;4.69;81.46
58102;HTU21D;52034;51.926;6.320;2024-03-17T00:53:22;4.78;81.28
58102;HTU21D;52034;51.926;6.320;2024-03-17T00:54:23;4.75;81.49
58102;HTU21D;52034;51.926;6.320;2024-03-17T00:55:23;4.75;82.01
58102;HTU21D;52034;51.926;6.320;2024-03-17T00:56:24;4.71;82.48
58102;HTU21D;52034;51.926;6.320;2024-03-17T00:57:25;4.65;82.52
58102;HTU21D;52034;51.926;6.320;2024-03-17T00:58:26;4.66;82.01
58102;HTU21D;52034;51.926;6.320;2024-03-17T00:59:27;4.68;82.06
58102;HTU21D;52034;51.926;6.320;2024-03-17T01:00:28;4.74;82.46
58102;HTU21D;52034;51.926;6.320;2024-03-17T01:01:28;4.77;82.60
58102;HTU21D;52034;51.926;6.320;2024-03-17T01:02:29;4.78;82.10
58102;HTU21D;52034;51.926;6.320;2024-03-17T01:03:29;4.78;82.70
58102;HTU21D;52034;51.926;6.320;2024-03-17T01:04:30;4.81;82.45
58102;HTU21D;52034;51.926;6.320;2024-03-17T01:05:34;4.73;82.75
58102;HTU21D;52034;51.926;6.320;2024-03-17T01:06:34;4.76;82.04
58102;HTU21D;52034;51.926;6.320;2024-03-17T01:07:35;4.74;81.94
58102;HTU21D;52034;51.926;6.320;2024-03-17T01:08:36;4.78;81.55
58102;HTU21D;52034;51.926;6.320;2024-03-17T01:09:36;4.81;81.10
58102;HTU21D;52034;51.926;6.320;2024-03-17T01:10:40;4.77;80.67
58102;HTU21D;52034;51.926;6.320;2024-03-17T01:11:41;4.76;80.89
58102;HTU21D;52034;51.926;6.320;2024-03-17T01:12:42;4.74;81.14
58102;HTU21D;52034;51.926;6.320;2024-03-17T01:13:43;4.69;80.96
58102;HTU21D;52034;51.926;6.320;2024-03-17T01:14:44;4.68;80.87
58102;HTU21D;52034;51.926;6.320;2024-03-17T01:15:44;4.61;81.49
58102;HTU21D;52034;51.926;6.320;2024-03-17T01:16:45;4.58;81.22
58102;HTU21D;52034;51.926;6.320;2024-03-17T01:17:46;4.56;80.58
58102;HTU21D;52034;51.926;6.320;2024-03-17T01:18:46;4.44;80.88
58102;HTU21D;52034;51.926;6.320;2024-03-17T01:19:47;4.42;80.57
58102;HTU21D;52034;51.926;6.320;2024-03-17T01:20:48;4.46;81.57
58102;HTU21D;52034;51.926;6.320;2024-03-17T01:21:49;4.45;81.80
58102;HTU21D;52034;51.926;6.320;2024-03-17T01:22:49;4.43;81.42
58102;HTU21D;52034;51.926;6.320;2024-03-17T01:23:50;4.43;81.49
58102;HTU21D;52034;51.926;6.320;2024-03-17T01:24:51;4.37;81.90
58102;HTU21D;52034;51.926;6.320;2024-03-17T01:25:52;4.29;82.77
58102;HTU21D;52034;51.926;6.320;2024-03-17T01:26:52;4.36;82.27
58102;HTU21D;52034;51.926;6.320;2024-03-17T01:27:53;4.36;81.94
58102;HTU21D;52034;51.926;6.320;2024-03-17T01:28:54;4.30;81.97
58102;HTU21D;52034;51.926;6.320;2024-03-17T01:29:54;4.29;82.07
58102;HTU21D;52034;51.926;6.320;2024-03-17T01:30:55;4.21;82.73
58102;HTU21D;52034;51.926;6.320;2024-03-17T01:31:56;4.27;82.70
58102;HTU21D;52034;51.926;6.320;2024-03-17T01:32:56;4.27;81.77
58102;HTU21D;52034;51.926;6.320;2024-03-17T01:33:57;4.24;81.64
58102;HTU21D;52034;51.926;6.320;2024-03-17T01:34:58;4.29;82.64
58102;HTU21D;52034;51.926;6.320;2024-03-17T01:35:59;4.30;82.01
58102;HTU21D;52034;51.926;6.320;2024-03-17T01:36:59;4.30;81.23
58102;HTU21D;52034;51.926;6.320;2024-03-17T01:38:00;4.36;82.04
58102;HTU21D;52034;51.926;6.320;2024-03-17T01:39:01;4.39;81.23
58102;HTU21D;52034;51.926;6.320;2024-03-17T01:40:03;4.46;81.72
58102;HTU21D;52034;51.926;6.320;2024-03-17T01:41:08;4.41;80.99
58102;HTU21D;52034;51.926;6.320;2024-03-17T01:42:09;4.47;82.22
58102;HTU21D;52034;51.926;6.320;2024-03-17T01:43:10;4.37;81.56
58102;HTU21D;52034;51.926;6.320;2024-03-17T01:44:21;4.33;81.81
58102;HTU21D;52034;51.926;6.320;2024-03-17T01:46:23;4.49;81.68
58102;HTU21D;52034;51.926;6.320;2024-03-17T01:47:23;4.47;80.74
58102;HTU21D;52034;51.926;6.320;2024-03-17T01:48:25;4.48;81.62
58102;HTU21D;52034;51.926;6.320;2024-03-17T01:49:26;4.52;80.98
58102;HTU21D;52034;51.926;6.320;2024-03-17T01:50:32;4.37;80.21
58102;HTU21D;52034;51.926;6.320;2024-03-17T01:51:33;4.44;81.94
58102;HTU21D;52034;51.926;6.320;2024-03-17T01:52:34;4.45;82.02
58102;HTU21D;52034;51.926;6.320;2024-03-17T01:53:36;4.44;82.20
58102;HTU21D;52034;51.926;6.320;2024-03-17T01:54:37;4.48;81.84
58102;HTU21D;52034;51.926;6.320;2024-03-17T01:55:38;4.49;81.85
58102;HTU21D;52034;51.926;6.320;2024-03-17T01:56:40;4.45;82.00
58102;HTU21D;52034;51.926;6.320;2024-03-17T01:57:41;4.39;82.16
58102;HTU21D;52034;51.926;6.320;2024-03-17T01:58:44;4.42;82.02
58102;HTU21D;52034;51.926;6.320;2024-03-17T01:59:45;4.42;82.91
58102;HTU21D;52034;51.926;6.320;2024-03-17T02:00:46;4.45;83.16
58102;HTU21D;52034;51.926;6.320;2024-03-17T02:01:47;4.39;83.79
58102;HTU21D;52034;51.926;6.320;2024-03-17T02:02:48;4.45;83.90
58102;HTU21D;52034;51.926;6.320;2024-03-17T02:03:48;4.42;83.99
58102;HTU21D;52034;51.926;6.320;2024-03-17T02:04:49;4.42;83.53
58102;HTU21D;52034;51.926;6.320;2024-03-17T02:05:50;4.44;84.00
58102;HTU21D;52034;51.926;6.320;2024-03-17T02:06:51;4.43;84.03
58102;HTU21D;52034;51.926;6.320;2024-03-17T02:07:52;4.38;83.75
58102;HTU21D;52034;51.926;6.320;2024-03-17T02:08:53;4.37;83.57
58102;HTU21D;52034;51.926;6.320;2024-03-17T02:09:56;4.43;83.32
58102;HTU21D;52034;51.926;6.320;2024-03-17T02:10:57;4.41;83.37
58102;HTU21D;52034;51.926;6.320;2024-03-17T02:11:57;4.36;83.58
58102;HTU21D;52034;51.926;6.320;2024-03-17T02:12:58;4.37;83.71
58102;HTU21D;52034;51.926;6.320;2024-03-17T02:14:00;4.32;83.94
58102;HTU21D;52034;51.926;6.320;2024-03-17T02:15:01;4.29;83.68
58102;HTU21D;52034;51.926;6.320;2024-03-17T02:16:05;4.34;83.89
58102;HTU21D;52034;51.926;6.320;2024-03-17T02:17:06;4.33;84.01
58102;HTU21D;52034;51.926;6.320;2024-03-17T02:18:06;4.29;84.18
58102;HTU21D;52034;51.926;6.320;2024-03-17T02:19:07;4.29;84.38
58102;HTU21D;52034;51.926;6.320;2024-03-17T02:20:08;4.32;84.08
58102;HTU21D;52034;51.926;6.320;2024-03-17T02:21:12;4.36;84.10
58102;HTU21D;52034;51.926;6.320;2024-03-17T02:22:13;4.41;84.03
58102;HTU21D;52034;51.926;6.320;2024-03-17T02:23:15;4.33;84.55
58102;HTU21D;52034;51.926;6.320;2024-03-17T02:24:15;4.27;84.67
58102;HTU21D;52034;51.926;6.320;2024-03-17T02:25:16;4.24;84.61
58102;HTU21D;52034;51.926;6.320;2024-03-17T02:26:17;4.22;84.48
58102;HTU21D;52034;51.926;6.320;2024-03-17T02:27:17;4.18;84.73
58102;HTU21D;52034;51.926;6.320;2024-03-17T02:28:18;4.18;84.71
58102;HTU21D;52034;51.926;6.320;2024-03-17T02:29:19;4.21;84.35
58102;HTU21D;52034;51.926;6.320;2024-03-17T02:30:20;4.24;84.48
58102;HTU21D;52034;51.926;6.320;2024-03-17T02:31:20;4.24;84.00
58102;HTU21D;52034;51.926;6.320;2024-03-17T02:32:22;4.24;84.22
58102;HTU21D;52034;51.926;6.320;2024-03-17T02:33:23;4.24;84.22
58102;HTU21D;52034;51.926;6.320;2024-03-17T02:34:23;4.19;83.97
58102;HTU21D;52034;51.926;6.320;2024-03-17T02:35:24;4.17;83.88
58102;HTU21D;52034;51.926;6.320;2024-03-17T02:36:25;4.19;83.49
58102;HTU21D;52034;51.926;6.320;2024-03-17T02:37:25;4.14;83.13
58102;HTU21D;52034;51.926;6.320;2024-03-17T02:38:27;4.16;83.74
58102;HTU21D;52034;51.926;6.320;2024-03-17T02:39:46;4.16;83.97
58102;HTU21D;52034;51.926;6.320;2024-03-17T02:40:47;4.03;83.81
58102;HTU21D;52034;51.926;6.320;2024-03-17T02:41:47;4.06;84.01
58102;HTU21D;52034;51.926;6.320;2024-03-17T02:42:48;4.17;83.81
58102;HTU21D;52034;51.926;6.320;2024-03-17T02:43:49;4.22;83.69
58102;HTU21D;52034;51.926;6.320;2024-03-17T02:44:50;4.29;83.29
58102;HTU21D;52034;51.926;6.320;2024-03-17T02:45:51;4.27;82.52
58102;HTU21D;52034;51.926;6.320;2024-03-17T02:46:52;4.27;82.75
58102;HTU21D;52034;51.926;6.320;2024-03-17T02:47:53;4.27;82.58
58102;HTU21D;52034;51.926;6.320;2024-03-17T02:48:53;4.22;83.00
58102;HTU21D;52034;51.926;6.320;2024-03-17T02:49:54;4.24;83.23
58102;HTU21D;52034;51.926;6.320;2024-03-17T02:50:55;4.28;83.33
58102;HTU21D;52034;51.926;6.320;2024-03-17T02:51:56;4.33;83.39
58102;HTU21D;52034;51.926;6.320;2024-03-17T02:52:57;4.31;83.07
58102;HTU21D;52034;51.926;6.320;2024-03-17T02:53:57;4.32;83.10
58102;HTU21D;52034;51.926;6.320;2024-03-17T02:55:00;4.33;83.00
58102;HTU21D;52034;51.926;6.320;2024-03-17T02:56:00;4.32;82.96
58102;HTU21D;52034;51.926;6.320;2024-03-17T02:57:04;4.24;83.56
58102;HTU21D;52034;51.926;6.320;2024-03-17T02:58:05;4.21;83.81
58102;HTU21D;52034;51.926;6.320;2024-03-17T02:59:07;4.18;83.17
58102;HTU21D;52034;51.926;6.320;2024-03-17T03:00:07;4.16;82.84
58102;HTU21D;52034;51.926;6.320;2024-03-17T03:01:13;4.20;82.04
58102;HTU21D;52034;51.926;6.320;2024-03-17T03:02:15;4.17;82.76
58102;HTU21D;52034;51.926;6.320;2024-03-17T03:03:15;4.17;82.40
58102;HTU21D;52034;51.926;6.320;2024-03-17T03:04:16;4.17;82.66
58102;HTU21D;52034;51.926;6.320;2024-03-17T03:05:17;4.14;82.58
58102;HTU21D;52034;51.926;6.320;2024-03-17T03:06:18;4.09;82.70
58102;HTU21D;52034;51.926;6.320;2024-03-17T03:07:19;4.07;82.58
58102;HTU21D;52034;51.926;6.320;2024-03-17T03:08:20;4.09;82.71
58102;HTU21D;52034;51.926;6.320;2024-03-17T03:09:21;4.15;82.84
58102;HTU21D;52034;51.926;6.320;2024-03-17T03:10:26;4.08;83.81
58102;HTU21D;52034;51.926;6.320;2024-03-17T03:11:27;4.08;83.87
58102;HTU21D;52034;51.926;6.320;2024-03-17T03:12:27;4.13;83.31
58102;HTU21D;52034;51.926;6.320;2024-03-17T03:13:28;4.14;82.52
58102;HTU21D;52034;51.926;6.320;2024-03-17T03:14:29;4.12;82.81
58102;HTU21D;52034;51.926;6.320;2024-03-17T03:15:32;4.14;83.04
58102;HTU21D;52034;51.926;6.320;2024-03-17T03:16:33;4.14;82.69
58102;HTU21D;52034;51.926;6.320;2024-03-17T03:17:34;4.21;82.68
58102;HTU21D;52034;51.926;6.320;2024-03-17T03:18:35;4.08;83.90
58102;HTU21D;52034;51.926;6.320;2024-03-17T03:19:36;4.07;83.71
58102;HTU21D;52034;51.926;6.320;2024-03-17T03:20:36;3.98;84.68
58102;HTU21D;52034;51.926;6.320;2024-03-17T03:21:37;4.04;83.65
58102;HTU21D;52034;51.926;6.320;2024-03-17T03:22:38;4.02;83.89
58102;HTU21D;52034;51.926;6.320;2024-03-17T03:23:38;4.01;83.22
58102;HTU21D;52034;51.926;6.320;2024-03-17T03:24:39;4.07;84.35
58102;HTU21D;52034;51.926;6.320;2024-03-17T03:25:40;4.15;84.30
58102;HTU21D;52034;51.926;6.320;2024-03-17T03:26:40;4.17;84.00
58102;HTU21D;52034;51.926;6.320;2024-03-17T03:27:41;4.15;83.72
58102;HTU21D;52034;51.926;6.320;2024-03-17T03:28:42;4.16;84.10
58102;HTU21D;52034;51.926;6.320;2024-03-17T03:29:42;4.17;83.72
58102;HTU21D;52034;51.926;6.320;2024-03-17T03:30:43;4.18;84.10
58102;HTU21D;52034;51.926;6.320;2024-03-17T03:31:44;4.19;83.68
58102;HTU21D;52034;51.926;6.320;2024-03-17T03:32:44;4.20;84.27
58102;HTU21D;52034;51.926;6.320;2024-03-17T03:33:45;4.27;84.00
58102;HTU21D;52034;51.926;6.320;2024-03-17T03:34:46;4.30;83.90
58102;HTU21D;52034;51.926;6.320;2024-03-17T03:35:46;4.32;83.94
58102;HTU21D;52034;51.926;6.320;2024-03-17T03:36:47;4.34;84.13
58102;HTU21D;52034;51.926;6.320;2024-03-17T03:37:49;4.38;83.68
58102;HTU21D;52034;51.926;6.320;2024-03-17T03:38:50;4.42;83.91
58102;HTU21D;52034;51.926;6.320;2024-03-17T03:39:50;4.41;84.15
58102;HTU21D;52034;51.926;6.320;2024-03-17T03:40:51;4.48;83.87
58102;HTU21D;52034;51.926;6.320;2024-03-17T03:41:52;4.48;83.88
58102;HTU21D;52034;51.926;6.320;2024-03-17T03:42:55;4.48;83.80
58102;HTU21D;52034;51.926;6.320;2024-03-17T03:43:56;4.47;84.10
58102;HTU21D;52034;51.926;6.320;2024-03-17T03:44:57;4.50;83.95
58102;HTU21D;52034;51.926;6.320;2024-03-17T03:45:59;4.52;84.10
58102;HTU21D;52034;51.926;6.320;2024-03-17T03:46:59;4.49;83.91
58102;HTU21D;52034;51.926;6.320;2024-03-17T03:48:01;4.50;84.00
58102;HTU21D;52034;51.926;6.320;2024-03-17T03:49:03;4.51;84.21
58102;HTU21D;52034;51.926;6.320;2024-03-17T03:50:05;4.53;85.22
58102;HTU21D;52034;51.926;6.320;2024-03-17T03:51:08;4.56;85.27
58102;HTU21D;52034;51.926;6.320;2024-03-17T03:52:10;4.58;85.23
58102;HTU21D;52034;51.926;6.320;2024-03-17T03:53:10;4.60;84.94
58102;HTU21D;52034;51.926;6.320;2024-03-17T03:54:11;4.64;85.04
58102;HTU21D;52034;51.926;6.320;2024-03-17T03:55:12;4.68;84.58
58102;HTU21D;52034;51.926;6.320;2024-03-17T03:56:16;4.67;84.98
58102;HTU21D;52034;51.926;6.320;2024-03-17T03:57:16;4.65;85.06
58102;HTU21D;52034;51.926;6.320;2024-03-17T03:58:17;4.67;84.76
58102;HTU21D;52034;51.926;6.320;2024-03-17T03:59:18;4.69;84.70
58102;HTU21D;52034;51.926;6.320;2024-03-17T04:00:19;4.69;84.76
58102;HTU21D;52034;51.926;6.320;2024-03-17T04:01:22;4.71;84.89
58102;HTU21D;52034;51.926;6.320;2024-03-17T04:02:23;4.69;84.93
58102;HTU21D;52034;51.926;6.320;2024-03-17T04:03:25;4.77;84.84
58102;HTU21D;52034;51.926;6.320;2024-03-17T04:04:26;4.79;84.58
58102;HTU21D;52034;51.926;6.320;2024-03-17T04:05:27;4.81;84.65
58102;HTU21D;52034;51.926;6.320;2024-03-17T04:06:27;4.80;84.62
58102;HTU21D;52034;51.926;6.320;2024-03-17T04:07:28;4.81;84.90
58102;HTU21D;52034;51.926;6.320;2024-03-17T04:08:29;4.83;84.19
58102;HTU21D;52034;51.926;6.320;2024-03-17T04:09:29;4.84;84.50
58102;HTU21D;52034;51.926;6.320;2024-03-17T04:10:30;4.80;85.07
58102;HTU21D;52034;51.926;6.320;2024-03-17T04:11:32;4.83;85.45
58102;HTU21D;52034;51.926;6.320;2024-03-17T04:12:33;4.88;85.38
58102;HTU21D;52034;51.926;6.320;2024-03-17T04:13:34;4.95;85.22
58102;HTU21D;52034;51.926;6.320;2024-03-17T04:14:34;4.96;85.15
58102;HTU21D;52034;51.926;6.320;2024-03-17T04:15:35;5.00;85.24
58102;HTU21D;52034;51.926;6.320;2024-03-17T04:16:35;5.00;85.37
58102;HTU21D;52034;51.926;6.320;2024-03-17T04:17:37;5.05;85.13
58102;HTU21D;52034;51.926;6.320;2024-03-17T04:18:37;5.10;84.52
58102;HTU21D;52034;51.926;6.320;2024-03-17T04:19:40;5.13;84.79
58102;HTU21D;52034;51.926;6.320;2024-03-17T04:20:41;5.10;84.90
58102;HTU21D;52034;51.926;6.320;2024-03-17T04:21:42;5.15;85.03
58102;HTU21D;52034;51.926;6.320;2024-03-17T04:22:42;5.19;84.75
58102;HTU21D;52034;51.926;6.320;2024-03-17T04:23:43;5.19;85.35
58102;HTU21D;52034;51.926;6.320;2024-03-17T04:24:44;5.23;84.94
58102;HTU21D;52034;51.926;6.320;2024-03-17T04:25:45;5.22;85.17
58102;HTU21D;52034;51.926;6.320;2024-03-17T04:26:46;5.27;84.91
58102;HTU21D;52034;51.926;6.320;2024-03-17T04:27:46;5.25;85.30
58102;HTU21D;52034;51.926;6.320;2024-03-17T04:28:47;5.30;85.06
58102;HTU21D;52034;51.926;6.320;2024-03-17T04:29:47;5.28;85.32
58102;HTU21D;52034;51.926;6.320;2024-03-17T04:30:48;5.30;85.24
58102;HTU21D;52034;51.926;6.320;2024-03-17T04:31:49;5.34;84.96
58102;HTU21D;52034;51.926;6.320;2024-03-17T04:32:49;5.31;85.25
58102;HTU21D;52034;51.926;6.320;2024-03-17T04:33:50;5.30;85.22
58102;HTU21D;52034;51.926;6.320;2024-03-17T04:34:51;5.34;84.91
58102;HTU21D;52034;51.926;6.320;2024-03-17T04:35:52;5.30;85.22
58102;HTU21D;52034;51.926;6.320;2024-03-17T04:36:53;5.33;84.97
58102;HTU21D;52034;51.926;6.320;2024-03-17T04:37:54;5.36;84.79
58102;HTU21D;52034;51.926;6.320;2024-03-17T04:38:57;5.28;85.22
58102;HTU21D;52034;51.926;6.320;2024-03-17T04:39:59;5.32;85.23
58102;HTU21D;52034;51.926;6.320;2024-03-17T04:41:00;5.32;85.10
58102;HTU21D;52034;51.926;6.320;2024-03-17T04:42:09;5.42;84.54
58102;HTU21D;52034;51.926;6.320;2024-03-17T04:43:10;5.41;84.93
58102;HTU21D;52034;51.926;6.320;2024-03-17T04:44:10;5.40;84.86
58102;HTU21D;52034;51.926;6.320;2024-03-17T04:45:11;5.42;84.54
58102;HTU21D;52034;51.926;6.320;2024-03-17T04:46:12;5.39;84.69
58102;HTU21D;52034;51.926;6.320;2024-03-17T04:47:14;5.40;84.84
58102;HTU21D;52034;51.926;6.320;2024-03-17T04:48:14;5.43;84.58
58102;HTU21D;52034;51.926;6.320;2024-03-17T04:49:15;5.43;84.61
58102;HTU21D;52034;51.926;6.320;2024-03-17T04:50:16;5.46;84.39
58102;HTU21D;52034;51.926;6.320;2024-03-17T04:51:16;5.49;84.28
58102;HTU21D;52034;51.926;6.320;2024-03-17T04:52:17;5.45;84.59
58102;HTU21D;52034;51.926;6.320;2024-03-17T04:53:18;5.46;84.53
58102;HTU21D;52034;51.926;6.320;2024-03-17T04:54:18;5.47;84.77
58102;HTU21D;52034;51.926;6.320;2024-03-17T04:55:19;5.43;85.00
58102;HTU21D;52034;51.926;6.320;2024-03-17T04:56:20;5.42;85.31
58102;HTU21D;52034;51.926;6.320;2024-03-17T04:57:20;5.49;84.81
58102;HTU21D;52034;51.926;6.320;2024-03-17T04:58:21;5.43;85.11
58102;HTU21D;52034;51.926;6.320;2024-03-17T04:59:21;5.37;85.38
58102;HTU21D;52034;51.926;6.320;2024-03-17T05:00:22;5.45;84.97
58102;HTU21D;52034;51.926;6.320;2024-03-17T05:01:23;5.42;85.22
58102;HTU21D;52034;51.926;6.320;2024-03-17T05:02:24;5.36;85.50
58102;HTU21D;52034;51.926;6.320;2024-03-17T05:03:25;5.40;85.36
58102;HTU21D;52034;51.926;6.320;2024-03-17T05:04:26;5.42;85.38
58102;HTU21D;52034;51.926;6.320;2024-03-17T05:05:26;5.45;85.35
58102;HTU21D;52034;51.926;6.320;2024-03-17T05:06:27;5.46;85.19
58102;HTU21D;52034;51.926;6.320;2024-03-17T05:07:28;5.42;85.39
58102;HTU21D;52034;51.926;6.320;2024-03-17T05:08:29;5.41;85.66
58102;HTU21D;52034;51.926;6.320;2024-03-17T05:09:30;5.41;85.74
58102;HTU21D;52034;51.926;6.320;2024-03-17T05:10:30;5.46;85.64
58102;HTU21D;52034;51.926;6.320;2024-03-17T05:11:31;5.43;85.62
58102;HTU21D;52034;51.926;6.320;2024-03-17T05:12:32;5.48;85.52
58102;HTU21D;52034;51.926;6.320;2024-03-17T05:13:33;5.50;85.31
58102;HTU21D;52034;51.926;6.320;2024-03-17T05:14:34;5.49;85.78
58102;HTU21D;52034;51.926;6.320;2024-03-17T05:15:36;5.46;85.86
58102;HTU21D;52034;51.926;6.320;2024-03-17T05:16:36;5.50;85.51
58102;HTU21D;52034;51.926;6.320;2024-03-17T05:17:37;5.48;86.03
58102;HTU21D;52034;51.926;6.320;2024-03-17T05:18:38;5.49;85.51
58102;HTU21D;52034;51.926;6.320;2024-03-17T05:19:39;5.55;85.20
58102;HTU21D;52034;51.926;6.320;2024-03-17T05:20:40;5.57;85.03
58102;HTU21D;52034;51.926;6.320;2024-03-17T05:21:41;5.51;85.36
58102;HTU21D;52034;51.926;6.320;2024-03-17T05:22:41;5.47;85.55
58102;HTU21D;52034;51.926;6.320;2024-03-17T05:23:42;5.46;85.48
58102;HTU21D;52034;51.926;6.320;2024-03-17T05:24:43;5.49;85.54
58102;HTU21D;52034;51.926;6.320;2024-03-17T05:25:50;5.43;85.70
58102;HTU21D;52034;51.926;6.320;2024-03-17T05:26:51;5.43;85.65
58102;HTU21D;52034;51.926;6.320;2024-03-17T05:27:51;5.45;85.67
58102;HTU21D;52034;51.926;6.320;2024-03-17T05:28:52;5.45;85.50
58102;HTU21D;52034;51.926;6.320;2024-03-17T05:29:53;5.49;85.58
58102;HTU21D;52034;51.926;6.320;2024-03-17T05:30:54;5.47;85.56
58102;HTU21D;52034;51.926;6.320;2024-03-17T05:31:55;5.49;85.26
58102;HTU21D;52034;51.926;6.320;2024-03-17T05:32:56;5.54;85.14
58102;HTU21D;52034;51.926;6.320;2024-03-17T05:33:57;5.50;85.55
58102;HTU21D;52034;51.926;6.320;2024-03-17T05:34:57;5.51;85.45
58102;HTU21D;52034;51.926;6.320;2024-03-17T05:35:59;5.52;85.39
58102;HTU21D;52034;51.926;6.320;2024-03-17T05:37:00;5.55;85.37
58102;HTU21D;52034;51.926;6.320;2024-03-17T05:38:02;5.50;85.71
58102;HTU21D;52034;51.926;6.320;2024-03-17T05:39:03;5.47;85.86
58102;HTU21D;52034;51.926;6.320;2024-03-17T05:40:04;5.54;85.63
58102;HTU21D;52034;51.926;6.320;2024-03-17T05:41:05;5.57;85.61
58102;HTU21D;52034;51.926;6.320;2024-03-17T05:42:06;5.57;85.74
58102;HTU21D;52034;51.926;6.320;2024-03-17T05:43:07;5.63;85.52
58102;HTU21D;52034;51.926;6.320;2024-03-17T05:44:07;5.60;85.65
58102;HTU21D;52034;51.926;6.320;2024-03-17T05:45:08;5.61;85.81
58102;HTU21D;52034;51.926;6.320;2024-03-17T05:46:11;5.64;85.72
58102;HTU21D;52034;51.926;6.320;2024-03-17T05:47:13;5.69;85.03
58102;HTU21D;52034;51.926;6.320;2024-03-17T05:48:13;5.72;84.79
58102;HTU21D;52034;51.926;6.320;2024-03-17T05:49:14;5.75;84.76
58102;HTU21D;52034;51.926;6.320;2024-03-17T05:50:15;5.75;84.70
58102;HTU21D;52034;51.926;6.320;2024-03-17T05:51:16;5.74;84.85
58102;HTU21D;52034;51.926;6.320;2024-03-17T05:52:17;5.76;84.92
58102;HTU21D;52034;51.926;6.320;2024-03-17T05:53:17;5.78;84.82
58102;HTU21D;52034;51.926;6.320;2024-03-17T05:54:18;5.80;84.66
58102;HTU21D;52034;51.926;6.320;2024-03-17T05:55:19;5.79;85.03
58102;HTU21D;52034;51.926;6.320;2024-03-17T05:56:19;5.83;84.80
58102;HTU21D;52034;51.926;6.320;2024-03-17T05:57:23;5.83;84.32
58102;HTU21D;52034;51.926;6.320;2024-03-17T05:58:24;5.79;85.03
58102;HTU21D;52034;51.926;6.320;2024-03-17T05:59:25;5.81;84.93
58102;HTU21D;52034;51.926;6.320;2024-03-17T06:00:26;5.80;85.12
58102;HTU21D;52034;51.926;6.320;2024-03-17T06:01:26;5.79;85.72
58102;HTU21D;52034;51.926;6.320;2024-03-17T06:02:27;5.77;85.64
58102;HTU21D;52034;51.926;6.320;2024-03-17T06:03:28;5.83;85.19
58102;HTU21D;52034;51.926;6.320;2024-03-17T06:04:29;5.82;85.38
58102;HTU21D;52034;51.926;6.320;2024-03-17T06:05:33;5.84;85.13
58102;HTU21D;52034;51.926;6.320;2024-03-17T06:06:34;5.85;84.93
58102;HTU21D;52034;51.926;6.320;2024-03-17T06:07:35;5.86;84.84
58102;HTU21D;52034;51.926;6.320;2024-03-17T06:08:36;5.86;85.01
58102;HTU21D;52034;51.926;6.320;2024-03-17T06:09:36;5.86;84.91
58102;HTU21D;52034;51.926;6.320;2024-03-17T06:10:37;5.86;85.06
58102;HTU21D;52034;51.926;6.320;2024-03-17T06:11:39;5.81;85.00
58102;HTU21D;52034;51.926;6.320;2024-03-17T06:12:39;5.84;84.93
58102;HTU21D;52034;51.926;6.320;2024-03-17T06:13:40;5.87;84.68
58102;HTU21D;52034;51.926;6.320;2024-03-17T06:14:40;5.89;84.54
58102;HTU21D;52034;51.926;6.320;2024-03-17T06:15:41;5.97;84.11
58102;HTU21D;52034;51.926;6.320;2024-03-17T06:16:42;5.99;83.97
58102;HTU21D;52034;51.926;6.320;2024-03-17T06:17:44;6.02;83.79
58102;HTU21D;52034;51.926;6.320;2024-03-17T06:18:44;6.02;83.64
58102;HTU21D;52034;51.926;6.320;2024-03-17T06:19:46;6.06;83.63
58102;HTU21D;52034;51.926;6.320;2024-03-17T06:20:47;6.06;83.52
58102;HTU21D;52034;51.926;6.320;2024-03-17T06:21:48;6.04;83.80
58102;HTU21D;52034;51.926;6.320;2024-03-17T06:22:49;6.02;83.85
58102;HTU21D;52034;51.926;6.320;2024-03-17T06:23:49;6.01;83.90
58102;HTU21D;52034;51.926;6.320;2024-03-17T06:24:50;6.05;83.97
58102;HTU21D;52034;51.926;6.320;2024-03-17T06:25:51;6.08;83.74
58102;HTU21D;52034;51.926;6.320;2024-03-17T06:26:52;6.06;83.90